createdAt,value
2023-01-09T00:01:16.695Z,21.60
2023-01-09T00:03:23.899Z,21.60
2023-01-09T00:05:32.800Z,21.60
2023-01-09T00:07:40.136Z,21.60
2023-01-09T00:09:47.117Z,21.60
2023-01-09T00:11:55.931Z,21.60
2023-01-09T00:14:03.112Z,21.60
2023-01-09T00:16:11.374Z,21.60
2023-01-09T00:18:18.294Z,21.70
2023-01-09T00:20:25.532Z,21.70
2023-01-09T00:22:35.166Z,21.70
2023-01-09T00:24:42.604Z,21.70
2023-01-09T00:26:49.529Z,21.70
2023-01-09T00:28:58.302Z,21.80
2023-01-09T00:31:06.306Z,21.80
2023-01-09T00:33:13.686Z,21.80
2023-01-09T00:35:22.198Z,21.80
2023-01-09T00:37:29.432Z,21.80
2023-01-09T00:39:38.200Z,21.80
2023-01-09T00:41:48.903Z,21.90
2023-01-09T00:44:00.285Z,21.80
2023-01-09T00:46:09.662Z,21.80
2023-01-09T00:48:25.879Z,21.90
2023-01-09T00:50:36.162Z,21.90
2023-01-09T00:52:44.134Z,22.00
2023-01-09T00:54:53.661Z,22.00
2023-01-09T00:57:01.713Z,22.10
2023-01-09T00:59:09.445Z,22.10
2023-01-09T01:01:16.674Z,22.20
2023-01-09T01:03:23.975Z,22.20
2023-01-09T01:05:47.081Z,22.30
2023-01-09T01:07:54.260Z,22.20
2023-01-09T01:10:02.853Z,22.30
2023-01-09T01:12:10.160Z,22.30
2023-01-09T01:14:17.139Z,22.40
2023-01-09T01:16:24.294Z,22.40
2023-01-09T01:18:31.199Z,22.50
2023-01-09T01:20:38.782Z,22.50
2023-01-09T01:22:46.074Z,22.50
2023-01-09T01:24:53.512Z,22.60
2023-01-09T01:27:02.222Z,22.60
2023-01-09T01:29:09.457Z,22.60
2023-01-09T01:31:21.705Z,22.70
2023-01-09T01:33:28.938Z,22.80
2023-01-09T01:35:36.295Z,22.80
2023-01-09T01:37:43.556Z,22.80
2023-01-09T01:39:50.741Z,22.90
2023-01-09T01:41:57.663Z,22.90
2023-01-09T01:44:09.353Z,23.00
2023-01-09T01:46:16.515Z,23.00
2023-01-09T01:48:27.710Z,23.10
2023-01-09T01:50:38.732Z,23.20
2023-01-09T01:52:48.524Z,23.30
2023-01-09T01:54:55.809Z,23.50
2023-01-09T01:57:05.862Z,23.50
2023-01-09T01:59:17.904Z,23.50
2023-01-09T02:01:25.548Z,23.50
2023-01-09T02:03:33.087Z,23.50
2023-01-09T02:05:42.618Z,23.50
2023-01-09T02:07:49.651Z,23.60
2023-01-09T02:09:57.929Z,23.70
2023-01-09T02:12:04.781Z,23.80
2023-01-09T02:14:14.217Z,23.80
2023-01-09T02:16:34.913Z,23.90
2023-01-09T02:18:55.154Z,23.90
2023-01-09T02:21:03.970Z,23.90
2023-01-09T02:23:43.469Z,24.00
2023-01-09T02:26:20.389Z,24.00
2023-01-09T02:29:00.325Z,24.10
2023-01-09T02:31:12.848Z,24.10
2023-01-09T02:33:42.657Z,24.10
2023-01-09T02:36:05.303Z,24.20
2023-01-09T02:38:20.827Z,24.20
2023-01-09T02:40:34.720Z,24.20
2023-01-09T02:42:45.085Z,24.30
2023-01-09T02:44:52.512Z,24.30
2023-01-09T02:47:09.834Z,24.30
2023-01-09T02:49:18.399Z,24.40
2023-01-09T02:51:36.946Z,24.50
2023-01-09T02:54:05.218Z,24.60
2023-01-09T02:56:36.877Z,24.70
2023-01-09T02:59:00.856Z,24.70
2023-01-09T03:01:23.013Z,24.70
2023-01-09T03:03:33.338Z,24.70
2023-01-09T03:05:45.908Z,24.70
2023-01-09T03:07:59.896Z,24.80
2023-01-09T03:10:12.034Z,24.90
2023-01-09T03:12:22.663Z,25.00
2023-01-09T03:14:31.213Z,25.10
2023-01-09T03:16:41.020Z,25.10
2023-01-09T03:18:52.223Z,25.20
2023-01-09T03:20:59.668Z,25.20
2023-01-09T03:23:07.881Z,25.20
2023-01-09T03:25:16.397Z,25.30
2023-01-09T03:27:23.775Z,25.40
2023-01-09T03:29:31.017Z,25.40
2023-01-09T03:31:37.923Z,25.50
2023-01-09T03:33:45.633Z,25.50
2023-01-09T03:35:54.502Z,25.60
2023-01-09T03:38:01.782Z,25.60
2023-01-09T03:40:09.864Z,25.60
2023-01-09T03:42:17.172Z,25.70
2023-01-09T03:44:24.095Z,25.80
2023-01-09T03:46:31.329Z,25.80
2023-01-09T03:48:38.408Z,25.90
2023-01-09T03:50:47.072Z,26.00
2023-01-09T03:52:55.791Z,26.00
2023-01-09T03:55:03.077Z,26.10
2023-01-09T03:57:09.957Z,26.10
2023-01-09T03:59:17.181Z,26.20
2023-01-09T04:01:24.229Z,26.20
2023-01-09T04:03:31.734Z,26.20
2023-01-09T04:05:38.965Z,26.20
2023-01-09T04:07:46.173Z,26.30
2023-01-09T04:09:54.871Z,26.40
2023-01-09T04:12:02.114Z,26.40
2023-01-09T04:14:09.143Z,26.40
2023-01-09T04:16:16.298Z,26.50
2023-01-09T04:18:23.506Z,26.50
2023-01-09T04:20:31.253Z,26.50
2023-01-09T04:22:43.303Z,26.60
2023-01-09T04:24:50.888Z,26.60
2023-01-09T04:26:59.657Z,26.60
2023-01-09T04:29:07.045Z,26.60
2023-01-09T04:31:14.205Z,26.60
2023-01-09T04:33:21.541Z,26.70
2023-01-09T04:35:28.745Z,26.80
2023-01-09T04:37:38.843Z,26.80
2023-01-09T04:39:46.181Z,26.80
2023-01-09T04:41:53.564Z,26.90
2023-01-09T04:44:02.285Z,26.80
2023-01-09T04:46:09.757Z,26.80
2023-01-09T04:48:16.695Z,26.80
2023-01-09T04:50:23.984Z,26.90
2023-01-09T04:52:31.061Z,26.90
2023-01-09T04:54:40.495Z,26.90
2023-01-09T04:56:47.675Z,27.10
2023-01-09T04:58:55.266Z,27.30
2023-01-09T05:01:03.991Z,27.50
2023-01-09T05:03:11.319Z,27.60
2023-01-09T05:05:18.296Z,27.60
2023-01-09T05:07:25.378Z,27.70
2023-01-09T05:09:32.457Z,27.80
2023-01-09T05:11:39.638Z,28.00
2023-01-09T05:13:46.511Z,28.10
2023-01-09T05:15:53.742Z,28.20
2023-01-09T05:18:02.307Z,28.30
2023-01-09T05:20:10.721Z,28.30
2023-01-09T05:22:17.643Z,28.40
2023-01-09T05:24:25.043Z,28.40
2023-01-09T05:26:31.971Z,28.50
2023-01-09T05:28:39.299Z,28.50
2023-01-09T05:30:46.331Z,28.50
2023-01-09T05:32:53.655Z,28.50
2023-01-09T05:35:02.318Z,28.50
2023-01-09T05:37:09.883Z,28.50
2023-01-09T05:39:16.893Z,28.60
2023-01-09T05:41:25.203Z,28.70
2023-01-09T05:43:32.227Z,28.70
2023-01-09T05:45:39.915Z,28.90
2023-01-09T05:47:48.577Z,28.90
2023-01-09T05:49:57.330Z,28.80
2023-01-09T05:52:05.943Z,28.80
2023-01-09T05:54:13.150Z,28.80
2023-01-09T05:56:20.228Z,28.60
2023-01-09T05:58:27.565Z,28.50
2023-01-09T06:00:34.597Z,28.30
2023-01-09T06:02:42.055Z,28.40
2023-01-09T06:04:49.106Z,28.50
2023-01-09T06:06:56.649Z,28.60
2023-01-09T06:09:05.631Z,28.80
2023-01-09T06:11:12.963Z,28.90
2023-01-09T06:13:19.831Z,29.00
2023-01-09T06:15:27.117Z,29.00
2023-01-09T06:17:33.991Z,28.90
2023-01-09T06:19:41.190Z,28.90
2023-01-09T06:21:48.158Z,28.70
2023-01-09T06:23:55.536Z,28.80
2023-01-09T06:26:04.207Z,28.80
2023-01-09T06:28:11.333Z,28.80
2023-01-09T06:30:18.410Z,28.80
2023-01-09T06:32:25.699Z,28.80
2023-01-09T06:34:32.727Z,28.90
2023-01-09T06:36:40.158Z,28.90
2023-01-09T06:38:50.054Z,29.00
2023-01-09T06:40:57.545Z,29.00
2023-01-09T06:43:06.272Z,29.00
2023-01-09T06:45:15.495Z,29.10
2023-01-09T06:47:22.469Z,29.20
2023-01-09T06:49:29.599Z,29.30
2023-01-09T06:51:36.633Z,29.30
2023-01-09T06:53:43.861Z,29.40
2023-01-09T06:55:51.000Z,29.40
2023-01-09T06:57:58.325Z,29.30
2023-01-09T07:00:07.920Z,29.20
2023-01-09T07:02:20.934Z,29.10
2023-01-09T07:04:27.878Z,29.20
2023-01-09T07:06:35.141Z,29.30
2023-01-09T07:08:42.481Z,29.50
2023-01-09T07:10:49.966Z,29.50
2023-01-09T07:12:56.896Z,29.50
2023-01-09T07:15:06.105Z,29.30
2023-01-09T07:17:14.289Z,29.30
2023-01-09T07:19:21.457Z,29.30
2023-01-09T07:21:29.199Z,29.40
2023-01-09T07:23:37.366Z,29.50
2023-01-09T07:25:45.416Z,29.50
2023-01-09T07:27:52.489Z,29.50
2023-01-09T07:29:59.815Z,29.50
2023-01-09T07:32:09.362Z,29.50
2023-01-09T07:34:16.543Z,29.50
2023-01-09T07:36:24.493Z,29.40
2023-01-09T07:38:31.586Z,29.40
2023-01-09T07:40:39.399Z,29.40
2023-01-09T07:42:46.466Z,29.40
2023-01-09T07:44:54.088Z,29.30
2023-01-09T07:47:01.273Z,29.30
2023-01-09T07:49:10.554Z,29.30
2023-01-09T07:51:17.577Z,29.30
2023-01-09T07:53:25.251Z,29.30
2023-01-09T07:55:32.251Z,29.20
2023-01-09T07:57:39.533Z,29.20
2023-01-09T07:59:46.562Z,29.20
2023-01-09T08:01:54.178Z,29.20
2023-01-09T08:04:01.283Z,29.20
2023-01-09T08:06:11.385Z,29.20
2023-01-09T08:08:18.309Z,29.20
2023-01-09T08:10:25.592Z,29.20
2023-01-09T08:12:32.623Z,29.10
2023-01-09T08:14:39.790Z,29.10
2023-01-09T08:16:46.940Z,29.10
2023-01-09T08:18:54.224Z,29.10
2023-01-09T08:21:01.300Z,29.10
2023-01-09T08:23:10.319Z,29.10
2023-01-09T08:25:17.503Z,29.10
2023-01-09T08:27:25.974Z,29.10
2023-01-09T08:29:33.656Z,29.10
2023-01-09T08:31:41.880Z,29.10
2023-01-09T08:33:49.860Z,29.10
2023-01-09T08:35:58.383Z,29.10
2023-01-09T08:38:06.627Z,29.10
2023-01-09T08:40:18.003Z,29.00
2023-01-09T08:42:42.290Z,29.00
2023-01-09T08:45:06.212Z,29.00
2023-01-09T08:47:14.627Z,29.00
2023-01-09T08:49:22.724Z,29.00
2023-01-09T08:51:30.324Z,29.00
2023-01-09T08:53:38.167Z,28.90
2023-01-09T08:55:47.445Z,28.90
2023-01-09T08:57:55.599Z,28.90
2023-01-09T09:00:02.989Z,28.80
2023-01-09T09:02:11.192Z,28.80
2023-01-09T09:04:18.732Z,28.80
2023-01-09T09:06:26.193Z,28.80
2023-01-09T09:08:33.317Z,28.80
2023-01-09T09:10:40.538Z,28.80
2023-01-09T09:12:51.564Z,28.80
2023-01-09T09:15:17.616Z,28.70
2023-01-09T09:17:24.920Z,28.80
2023-01-09T09:19:32.001Z,28.70
2023-01-09T09:21:39.283Z,28.60
2023-01-09T09:23:46.464Z,28.60
2023-01-09T09:25:53.851Z,28.60
2023-01-09T09:28:02.910Z,28.60
2023-01-09T09:30:11.541Z,28.60
2023-01-09T09:32:19.032Z,28.60
2023-01-09T09:34:26.519Z,28.60
2023-01-09T09:36:33.695Z,28.60
2023-01-09T09:38:41.138Z,28.50
2023-01-09T09:41:35.067Z,28.50
2023-01-09T09:44:23.719Z,28.50
2023-01-09T09:46:40.409Z,28.40
2023-01-09T09:48:53.193Z,28.40
2023-01-09T09:51:21.104Z,28.30
2023-01-09T09:53:32.828Z,28.30
2023-01-09T09:55:43.198Z,28.30
2023-01-09T09:57:50.997Z,28.20
2023-01-09T10:00:00.693Z,28.20
2023-01-09T10:02:15.142Z,28.10
2023-01-09T10:04:24.115Z,28.10
2023-01-09T10:06:34.684Z,28.10
2023-01-09T10:08:48.620Z,28.10
2023-01-09T10:10:57.125Z,28.10
2023-01-09T10:13:26.119Z,28.10
2023-01-09T10:15:44.753Z,28.10
2023-01-09T10:18:01.869Z,28.10
2023-01-09T10:20:43.780Z,28.10
2023-01-09T10:22:56.745Z,28.10
2023-01-09T10:25:24.971Z,28.00
2023-01-09T10:27:46.591Z,28.00
2023-01-09T10:30:07.441Z,28.00
2023-01-09T10:32:33.465Z,28.00
2023-01-09T10:34:53.100Z,27.90
2023-01-09T10:37:07.154Z,27.90
2023-01-09T10:39:20.850Z,27.80
2023-01-09T10:41:33.374Z,27.80
2023-01-09T10:43:47.823Z,27.80
2023-01-09T10:45:59.460Z,27.80
2023-01-09T10:48:09.255Z,27.70
2023-01-09T10:50:23.760Z,27.70
2023-01-09T10:52:37.497Z,27.60
2023-01-09T10:54:49.390Z,27.60
2023-01-09T10:56:59.587Z,27.60
2023-01-09T10:59:06.821Z,27.60
2023-01-09T11:01:14.213Z,27.60
2023-01-09T11:03:26.175Z,27.70
2023-01-09T11:05:35.071Z,27.70
2023-01-09T11:07:45.324Z,27.60
2023-01-09T11:10:03.261Z,27.60
2023-01-09T11:12:28.002Z,27.50
2023-01-09T11:14:35.440Z,27.60
2023-01-09T11:16:43.338Z,27.60
2023-01-09T11:18:55.687Z,27.60
2023-01-09T11:21:18.029Z,27.60
2023-01-09T11:23:33.598Z,27.60
2023-01-09T11:25:54.458Z,27.50
2023-01-09T11:28:09.780Z,27.50
2023-01-09T11:30:28.690Z,27.50
2023-01-09T11:32:36.638Z,27.40
2023-01-09T11:34:49.969Z,27.40
2023-01-09T11:37:05.324Z,27.40
2023-01-09T11:39:26.031Z,27.40
2023-01-09T11:41:36.708Z,27.40
2023-01-09T11:43:44.237Z,27.40
2023-01-09T11:46:01.512Z,27.40
2023-01-09T11:48:21.806Z,27.40
2023-01-09T11:50:32.826Z,27.40
2023-01-09T11:52:39.893Z,27.40
2023-01-09T11:54:50.813Z,27.30
2023-01-09T11:56:58.509Z,27.30
2023-01-09T11:59:05.698Z,27.30
2023-01-09T12:01:37.526Z,27.20
2023-01-09T12:04:05.927Z,27.10
2023-01-09T12:06:25.875Z,27.00
2023-01-09T12:08:41.692Z,27.00
2023-01-09T12:11:16.018Z,27.00
2023-01-09T12:13:36.663Z,27.00
2023-01-09T12:15:53.465Z,27.00
2023-01-09T12:18:24.965Z,27.00
2023-01-09T12:20:41.366Z,26.90
2023-01-09T12:22:59.656Z,26.90
2023-01-09T12:25:20.870Z,26.90
2023-01-09T12:27:39.677Z,26.90
2023-01-09T12:30:07.691Z,26.80
2023-01-09T12:32:35.869Z,26.80
2023-01-09T12:35:01.891Z,26.80
2023-01-09T12:37:30.377Z,26.80
2023-01-09T12:39:45.848Z,26.80
2023-01-09T12:42:20.674Z,26.70
2023-01-09T12:44:53.205Z,26.70
2023-01-09T12:47:16.732Z,26.70
2023-01-09T12:49:33.012Z,26.70
2023-01-09T12:51:45.270Z,26.70
2023-01-09T12:53:55.491Z,26.60
2023-01-09T12:56:10.276Z,26.60
2023-01-09T12:58:23.395Z,26.60
2023-01-09T13:00:36.569Z,26.50
2023-01-09T13:02:48.413Z,26.50
2023-01-09T13:04:59.742Z,26.50
2023-01-09T13:07:13.010Z,26.40
2023-01-09T13:09:29.255Z,26.40
2023-01-09T13:11:43.910Z,26.40
2023-01-09T13:13:55.087Z,26.30
2023-01-09T13:16:05.072Z,26.20
2023-01-09T13:18:19.803Z,26.30
2023-01-09T13:20:32.301Z,26.20
2023-01-09T13:22:39.788Z,26.20
2023-01-09T13:25:18.765Z,26.20
2023-01-09T13:27:30.143Z,26.20
2023-01-09T13:29:39.834Z,26.20
2023-01-09T13:32:01.153Z,26.20
2023-01-09T13:34:21.486Z,26.20
2023-01-09T13:36:32.212Z,26.10
2023-01-09T13:38:42.661Z,26.10
2023-01-09T13:40:49.946Z,26.10
2023-01-09T13:43:00.666Z,26.10
2023-01-09T13:45:24.601Z,26.10
2023-01-09T13:47:32.891Z,26.10
2023-01-09T13:50:05.573Z,26.10
2023-01-09T13:52:35.128Z,26.10
2023-01-09T13:55:04.376Z,26.10
2023-01-09T13:57:35.954Z,26.10
2023-01-09T13:59:45.934Z,26.10
2023-01-09T14:01:52.967Z,26.00
2023-01-09T14:04:28.910Z,26.00
2023-01-09T14:06:36.502Z,26.00
2023-01-09T14:08:44.613Z,26.00
2023-01-09T14:10:54.416Z,26.00
2023-01-09T14:13:02.363Z,26.00
2023-01-09T14:15:26.821Z,26.00
2023-01-09T14:17:40.007Z,26.00
2023-01-09T14:19:47.706Z,26.00
2023-01-09T14:21:59.011Z,26.00
2023-01-09T14:24:08.122Z,26.00
2023-01-09T14:26:21.706Z,26.00
2023-01-09T14:28:29.997Z,26.00
2023-01-09T14:31:29.493Z,25.90
2023-01-09T14:33:36.937Z,25.90
2023-01-09T14:35:47.558Z,25.90
2023-01-09T14:38:17.159Z,25.90
2023-01-09T14:40:26.389Z,25.90
2023-01-09T14:42:35.421Z,25.80
2023-01-09T14:44:51.969Z,25.80
2023-01-09T14:47:06.931Z,25.80
2023-01-09T14:49:24.303Z,25.80
2023-01-09T14:51:34.252Z,25.70
2023-01-09T14:53:41.863Z,25.70
2023-01-09T14:55:55.148Z,25.70
2023-01-09T14:58:15.324Z,25.70
2023-01-09T15:00:23.659Z,25.70
2023-01-09T15:02:35.983Z,25.70
2023-01-09T15:04:46.932Z,25.70
2023-01-09T15:06:54.530Z,25.70
2023-01-09T15:09:06.771Z,25.70
2023-01-09T15:11:16.408Z,25.60
2023-01-09T15:13:32.813Z,25.60
2023-01-09T15:15:40.091Z,25.60
2023-01-09T15:17:52.378Z,25.60
2023-01-09T15:20:00.290Z,25.60
2023-01-09T15:22:08.910Z,25.60
2023-01-09T15:24:16.804Z,25.50
2023-01-09T15:26:30.234Z,25.50
2023-01-09T15:28:37.569Z,25.50
2023-01-09T15:30:45.316Z,25.50
2023-01-09T15:32:55.161Z,25.50
2023-01-09T15:35:05.409Z,25.60
2023-01-09T15:37:26.880Z,25.50
2023-01-09T15:39:38.462Z,25.60
2023-01-09T15:42:05.567Z,25.50
2023-01-09T15:44:20.832Z,25.50
2023-01-09T15:46:28.832Z,25.50
2023-01-09T15:48:38.864Z,25.50
2023-01-09T15:50:46.911Z,25.50
2023-01-09T15:52:55.190Z,25.50
2023-01-09T15:55:02.223Z,25.40
2023-01-09T15:57:36.449Z,25.50
2023-01-09T15:59:43.823Z,25.40
2023-01-09T16:02:11.221Z,25.40
2023-01-09T16:04:21.261Z,25.40
2023-01-09T16:06:31.397Z,25.40
2023-01-09T16:08:41.030Z,25.30
2023-01-09T16:10:54.287Z,25.30
2023-01-09T16:13:02.062Z,25.30
2023-01-09T16:15:10.086Z,25.20
2023-01-09T16:17:20.291Z,25.20
2023-01-09T16:19:44.879Z,25.20
2023-01-09T16:22:00.823Z,25.20
2023-01-09T16:24:27.916Z,25.20
2023-01-09T16:26:35.543Z,25.20
2023-01-09T16:28:43.964Z,25.20
2023-01-09T16:30:57.194Z,25.10
2023-01-09T16:33:04.400Z,25.10
2023-01-09T16:35:20.625Z,25.10
2023-01-09T16:37:28.914Z,25.10
2023-01-09T16:39:36.322Z,25.10
2023-01-09T16:42:03.383Z,25.00
2023-01-09T16:44:12.146Z,25.10
2023-01-09T16:46:20.022Z,25.00
2023-01-09T16:48:27.206Z,25.00
2023-01-09T16:50:35.927Z,25.00
2023-01-09T16:52:44.806Z,25.00
2023-01-09T16:54:52.692Z,25.00
2023-01-09T16:57:00.205Z,25.00
2023-01-09T16:59:07.110Z,24.90
2023-01-09T17:01:15.828Z,24.90
2023-01-09T17:03:22.909Z,24.90
2023-01-09T17:05:30.138Z,24.90
2023-01-09T17:07:39.110Z,24.90
2023-01-09T17:09:46.859Z,24.90
2023-01-09T17:11:53.783Z,24.90
2023-01-09T17:14:01.236Z,25.00
2023-01-09T17:16:08.951Z,24.90
2023-01-09T17:18:19.166Z,24.90
2023-01-09T17:20:28.959Z,25.00
2023-01-09T17:22:37.983Z,25.00
2023-01-09T17:25:02.063Z,25.00
2023-01-09T17:27:26.241Z,25.00
2023-01-09T17:29:33.219Z,25.00
2023-01-09T17:31:40.433Z,25.00
2023-01-09T17:33:47.379Z,25.00
2023-01-09T17:35:54.718Z,25.00
2023-01-09T17:38:03.429Z,25.00
2023-01-09T17:40:21.109Z,25.00
2023-01-09T17:42:27.982Z,25.00
2023-01-09T17:44:35.317Z,25.00
2023-01-09T17:46:45.160Z,25.00
2023-01-09T17:48:54.241Z,25.00
2023-01-09T17:51:01.331Z,25.00
2023-01-09T17:53:10.236Z,25.00
2023-01-09T17:55:17.372Z,25.10
2023-01-09T17:57:24.759Z,25.00
2023-01-09T17:59:31.739Z,25.00
2023-01-09T18:01:39.164Z,25.00
2023-01-09T18:03:47.785Z,25.00
2023-01-09T18:05:55.074Z,25.00
2023-01-09T18:08:01.992Z,25.00
2023-01-09T18:10:16.652Z,25.00
2023-01-09T18:12:23.679Z,25.00
2023-01-09T18:14:30.963Z,25.00
2023-01-09T18:16:38.252Z,25.00
2023-01-09T18:18:46.005Z,25.00
2023-01-09T18:20:53.688Z,25.00
2023-01-09T18:23:00.874Z,24.90
2023-01-09T18:25:10.458Z,24.90
2023-01-09T18:27:17.689Z,24.90
2023-01-09T18:29:24.562Z,24.90
2023-01-09T18:31:33.075Z,24.90
2023-01-09T18:33:40.168Z,24.90
2023-01-09T18:35:48.258Z,24.90
2023-01-09T18:37:55.390Z,24.90
2023-01-09T18:40:02.880Z,24.80
2023-01-09T18:42:11.644Z,24.80
2023-01-09T18:44:22.873Z,24.80
2023-01-09T18:46:32.881Z,24.80
2023-01-09T18:48:39.949Z,24.80
2023-01-09T18:50:48.160Z,24.70
2023-01-09T18:52:55.392Z,24.70
2023-01-09T18:55:02.264Z,24.70
2023-01-09T18:57:11.287Z,24.70
2023-01-09T18:59:18.450Z,24.70
2023-01-09T19:01:26.105Z,24.60
2023-01-09T19:03:33.465Z,24.60
2023-01-09T19:05:40.682Z,24.60
2023-01-09T19:07:47.707Z,24.60
2023-01-09T19:09:55.147Z,24.50
2023-01-09T19:12:02.532Z,24.50
2023-01-09T19:14:11.403Z,24.50
2023-01-09T19:16:18.437Z,24.50
2023-01-09T19:18:25.565Z,24.50
2023-01-09T19:20:32.684Z,24.50
2023-01-09T19:22:39.935Z,24.40
2023-01-09T19:24:46.799Z,24.40
2023-01-09T19:26:54.033Z,24.30
2023-01-09T19:29:01.790Z,24.30
2023-01-09T19:31:11.133Z,24.20
2023-01-09T19:33:18.091Z,24.20
2023-01-09T19:35:25.216Z,24.20
2023-01-09T19:37:32.142Z,24.20
2023-01-09T19:39:40.196Z,24.20
2023-01-09T19:41:47.221Z,24.30
2023-01-09T19:43:54.814Z,24.30
2023-01-09T19:46:02.038Z,24.30
2023-01-09T19:48:11.173Z,24.30
2023-01-09T19:50:19.333Z,24.30
2023-01-09T19:52:26.467Z,24.30
2023-01-09T19:54:33.898Z,24.30
2023-01-09T19:56:44.904Z,24.20
2023-01-09T19:58:53.636Z,24.20
2023-01-09T20:01:00.735Z,24.20
2023-01-09T20:03:07.745Z,24.20
2023-01-09T20:05:16.614Z,24.20
2023-01-09T20:07:24.059Z,24.20
2023-01-09T20:09:31.334Z,24.20
2023-01-09T20:11:38.464Z,24.20
2023-01-09T20:13:45.902Z,24.20
2023-01-09T20:15:52.830Z,24.20
2023-01-09T20:18:00.880Z,24.20
2023-01-09T20:20:08.423Z,24.10
2023-01-09T20:22:17.654Z,24.10
2023-01-09T20:24:24.838Z,24.10
2023-01-09T20:26:32.477Z,24.10
2023-01-09T20:28:39.350Z,24.10
2023-01-09T20:30:46.686Z,24.20
2023-01-09T20:32:53.711Z,24.10
2023-01-09T20:35:02.841Z,24.10
2023-01-09T20:37:09.764Z,24.10
2023-01-09T20:39:18.673Z,24.10
2023-01-09T20:41:26.390Z,24.00
2023-01-09T20:43:33.669Z,24.00
2023-01-09T20:45:40.809Z,24.00
2023-01-09T20:47:48.233Z,24.00
2023-01-09T20:49:55.212Z,24.00
2023-01-09T20:52:02.654Z,24.00
2023-01-09T20:54:09.579Z,24.00
2023-01-09T20:56:18.598Z,24.00
2023-01-09T20:58:26.484Z,24.00
2023-01-09T21:00:34.747Z,23.90
2023-01-09T21:02:43.728Z,23.90
2023-01-09T21:04:51.167Z,23.80
2023-01-09T21:06:58.077Z,23.80
2023-01-09T21:09:05.585Z,23.80
2023-01-09T21:11:12.917Z,23.80
2023-01-09T21:13:21.889Z,23.80
2023-01-09T21:15:28.867Z,23.90
2023-01-09T21:17:37.535Z,23.90
2023-01-09T21:19:44.556Z,23.80
2023-01-09T21:21:53.431Z,23.80
2023-01-09T21:24:02.201Z,23.90
2023-01-09T21:26:14.348Z,23.80
2023-01-09T21:28:23.988Z,23.90
2023-01-09T21:30:31.269Z,23.90
2023-01-09T21:32:38.348Z,23.80
2023-01-09T21:34:45.535Z,23.80
2023-01-09T21:36:52.931Z,23.80
2023-01-09T21:39:02.560Z,23.80
2023-01-09T21:41:26.452Z,23.80
2023-01-09T21:44:06.481Z,23.80
2023-01-09T21:46:32.456Z,23.80
2023-01-09T21:48:40.506Z,23.70
2023-01-09T21:50:47.430Z,23.80
2023-01-09T21:52:54.715Z,23.70
2023-01-09T21:55:01.744Z,23.70
2023-01-09T21:57:10.203Z,23.70
2023-01-09T21:59:19.488Z,23.70
2023-01-09T22:01:26.824Z,23.70
2023-01-09T22:03:33.950Z,23.70
2023-01-09T22:05:41.287Z,23.70
2023-01-09T22:07:48.313Z,23.60
2023-01-09T22:09:55.701Z,23.60
2023-01-09T22:12:02.574Z,23.50
2023-01-09T22:14:10.012Z,23.60
2023-01-09T22:16:18.820Z,23.60
2023-01-09T22:18:26.375Z,23.60
2023-01-09T22:20:33.354Z,23.60
2023-01-09T22:22:40.430Z,23.50
2023-01-09T22:24:47.471Z,23.50
2023-01-09T22:26:54.740Z,23.40
2023-01-09T22:29:01.825Z,23.40
2023-01-09T22:31:12.791Z,23.40
2023-01-09T22:33:21.507Z,23.40
2023-01-09T22:35:28.895Z,23.40
2023-01-09T22:37:36.281Z,23.40
2023-01-09T22:39:43.976Z,23.40
2023-01-09T22:41:56.278Z,23.40
2023-01-09T22:44:03.765Z,23.40
2023-01-09T22:46:11.984Z,23.40
2023-01-09T22:48:20.995Z,23.40
2023-01-09T22:50:28.445Z,23.50
2023-01-09T22:52:35.668Z,23.50
2023-01-09T22:54:42.647Z,23.50
2023-01-09T22:56:52.008Z,23.50
2023-01-09T22:59:02.024Z,23.50
2023-01-09T23:01:09.871Z,23.50
2023-01-09T23:03:16.851Z,23.50
2023-01-09T23:05:25.874Z,23.50
2023-01-09T23:07:33.054Z,23.50
2023-01-09T23:09:40.286Z,23.50
2023-01-09T23:12:05.400Z,23.50
2023-01-09T23:14:13.798Z,23.50
2023-01-09T23:16:20.982Z,23.50
2023-01-09T23:18:28.727Z,23.50
2023-01-09T23:20:37.443Z,23.40
2023-01-09T23:22:44.630Z,23.40
2023-01-09T23:24:51.667Z,23.40
2023-01-09T23:26:59.451Z,23.50
2023-01-09T23:29:07.153Z,23.40
2023-01-09T23:31:14.631Z,23.40
2023-01-09T23:33:22.223Z,23.40
2023-01-09T23:35:29.612Z,23.50
2023-01-09T23:37:38.230Z,23.40
2023-01-09T23:39:45.509Z,23.50
2023-01-09T23:42:08.921Z,23.40
2023-01-09T23:44:16.318Z,23.40
2023-01-09T23:46:23.491Z,23.40
2023-01-09T23:48:30.722Z,23.50
2023-01-09T23:50:38.315Z,23.50
2023-01-09T23:52:47.337Z,23.50
2023-01-09T23:54:54.984Z,23.50
2023-01-09T23:57:02.378Z,23.50
2023-01-09T23:59:11.424Z,23.50
